Tiempo atmosférico en la estación meteorológica de Sant Hilari, Girona (810 m.)



Fecha
DESCASC
Temp. máxima en grados centígrados (hora)
DESCASC
Temp. mínima en grados centígrados (hora)
DESCASC
Temp. media en grados centígrados
DESCASC
Racha de viento máxima en m/sg (hora)
DESCASC
Velocidad máxima media en intervalos de 10 minutos(hora)
DESCASC
Precipitaciones diarias en mm
DESCASC
Precipitaciones de 00:00 a 06:00 en mm
DESCASC
Precipitaciones de 06:00 a 12:00 en mm
DESCASC
Precipitaciones de 12:00 a 18:00 en mm
DESCASC
Precipitaciones de 18:00 a 24:00 en mm
DESCASC
08-05-2019 20.6 (15:00) 10.1 (00:00) 15.4 13.61 (16:40) 6.67 (00:40) 1.2 0 0 0 1.2
10-05-2019 20.8 (14:10) 8.6 (00:00) 14.7 6.67 (15:10) 4.17 (15:50) 0 0 0 0 0
23-05-2019 22 (15:40) 7 (05:20) 14.5 6.11 (15:20) 3.06 (13:30) 0 0 0 0 0
11-05-2019 18.5 (14:30) 8 (00:00) 13.3 6.39 (12:20) 3.06 (13:50) 0 0 0 0 0
22-05-2019 20.5 (16:00) 5.6 (05:20) 13 6.11 (18:00) 3.06 (18:00) 0 0 0 0 0
16-05-2019 20.2 (16:10) 4.9 (00:00) 12.6 8.61 (10:00) 4.72 (09:50) 0 0 0 0 0
14-05-2019 21.3 (15:40) 3.8 (00:00) 12.5 10 (13:50) 5.28 (13:30) 0 0 0 0 0
12-05-2019 18.3 (18:30) 5.8 (00:00) 12 5.28 (15:20) 2.5 (15:20) 0 0 0 0 0
07-05-2019 20.8 (17:20) 3 (00:00) 11.9 8.89 (22:40) 4.72 (22:40) 0 0 0 0 0
01-05-2019 18.2 (13:40) 5.4 (00:00) 11.8 6.67 (15:10) 3.89 (16:40) 0 0 0 0 0
02-05-2019 15.4 (15:40) 8.3 (22:10) 11.8 8.61 (15:20) 4.72 (15:10) 2 0 0 0 2
30-04-2019 16.7 (14:20) 6 (00:00) 11.4 6.11 (12:50) 3.06 (12:50) 0 0 0 0 0
13-05-2019 19.8 (16:30) 2.8 (00:00) 11.3 6.94 (15:10) 3.33 (13:50) 0 0 0 0 0
26-04-2019 16.8 (16:00) 5.8 (00:00) 11.3 14.17 (04:50) 7.78 (04:50) 0 0 0 0 0
20-05-2019 15.4 (13:20) 6.2 (06:40) 10.8 7.22 (05:00) 4.44 (05:00) 1 0 0 0 1
09-05-2019 17.1 (15:30) 4.3 (00:00) 10.7 8.33 (16:30) 4.44 (18:00) 0 0 0 0 0
21-05-2019 16.7 (12:00) 4.4 (07:00) 10.6 7.78 (17:40) 4.72 (17:40) 0 0 0 0 0
29-04-2019 13.6 (16:10) 7.1 (00:00) 10.4 4.17 (14:40) 2.22 (12:50) 0.2 0 0 0 0.2
15-05-2019 15.8 (13:50) 4.7 (00:00) 10.3 5.83 (14:30) 3.33 (19:30) 0 0 0 0 0
27-04-2019 15 (14:30) 2.7 (00:00) 8.9 5.83 (14:30) 3.61 (13:00) 0 0 0 0 0
17-05-2019 10.6 (18:00) 7 (00:00) 8.8 9.17 (01:40) 5 (01:40) 10.8 1 8.4 0.2 1.2
05-05-2019 15.7 (16:40) 1.6 (00:00) 8.6 11.67 (09:40) 6.67 (09:50) 0 0 0 0 0
18-05-2019 11.7 (12:00) 5.5 (00:00) 8.6 5 (16:30) 2.78 (16:30) 5.4 4.2 0 0.4 0.8
04-05-2019 14.3 (13:10) 1.9 (00:00) 8.1 7.5 (03:40) 4.72 (03:20) 0 0 0 0 0
28-04-2019 13 (12:50) 2.9 (00:00) 8 4.72 (16:00) 2.5 (16:00) 0 0 0 0 0
19-05-2019 13 (12:10) 3 (00:00) 8 5.83 (23:20) 3.61 (23:50) 7.6 0 0.2 7.2 0.2
06-05-2019 15 (15:30) -1.8 (-00:0) 6.6 7.22 (11:30) 3.61 (16:30) 0 0 0 0 0
03-05-2019 8.9 (09:30) 3.9 (00:00) 6.4 4.17 (15:40) 2.22 (03:00) 24.2 2 8.2 13.2 0.8

Gráficas

Temp. máximas Temp. mínimas Temp. medias Precipitaciones Rachas de viento máximas Velocidades máximas media en intervalos de 10 minutos

Datos horarios

Fecha y hora oficial Temperatura (ºC) Velocidad del viento (km/h) Dirección del viento Racha (km/h) Dirección de racha Precipitación (mm) Presión (hPa) Tendencia (hPa) Humedad (%)
2019-05-25 23:00:00 10.6 3 Norte 6 Norte 0 -- -- 92
2019-05-25 22:00:00 12.3 2 Norte 8 Sur 0 -- -- 87
2019-05-25 21:00:00 15.3 7 Sur 10 Sur 0 -- -- 75
2019-05-25 20:00:00 17.2 2 Sur 11 Sur 0 -- -- 61
2019-05-25 19:00:00 17.7 7 Sur 12 Sur 0 -- -- 64
2019-05-25 18:00:00 18.4 3 Noroeste 16 Nordeste 0 -- -- 54
2019-05-25 17:00:00 19.3 5 Nordeste 25 Nordeste 0 -- -- 52
2019-05-25 16:00:00 18.9 8 Norte 23 Norte 0 -- -- 57
2019-05-25 15:00:00 17.8 12 Norte 22 Este 0 -- -- 63
2019-05-25 14:00:00 15 13 Norte 23 Norte 0 -- -- 70
2019-05-25 13:00:00 15 8 Norte 21 Noroeste 0 -- -- 76
2019-05-25 12:00:00 13 7 Norte 21 Este 0 -- -- 83
2019-05-25 11:00:00 11.6 3 Norte 16 Nordeste 0 -- -- 91
2019-05-25 10:00:00 11.5 6 Nordeste 13 Nordeste 0 -- -- 89
2019-05-25 09:00:00 11.3 0 Calma 6 Este 0 -- -- 91
2019-05-25 08:00:00 10.1 4 Este 9 Este 0 -- -- 98
2019-05-25 07:00:00 9.5 5 Norte 9 Norte 0.2 -- -- 98
2019-05-25 06:00:00 9.5 5 Norte 13 Noroeste 0 -- -- 98
2019-05-25 05:00:00 9.6 6 Norte 16 Norte 0 -- -- 98
2019-05-25 04:00:00 9.8 8 Norte 13 Noroeste 0.2 -- -- 98
2019-05-25 03:00:00 9.7 5 Norte 10 Norte 0.2 -- -- 98
2019-05-25 02:00:00 9.6 5 Nordeste 10 Noroeste 0 -- -- 98
2019-05-25 01:00:00 9.8 4 Norte 12 Norte 0.2 -- -- 98
2019-05-25 00:00:00 9.9 5 Norte 9 Norte 0.6 -- -- 97
2019-05-24 23:00:00 10.1 2 Noroeste 4 Noroeste 0.2 -- -- 97
2019-05-24 22:00:00 10 2 Norte 4 Nordeste 0 -- -- 96
2019-05-24 21:00:00 10.4 2 Este 4 Norte 0.2 -- -- 95
2019-05-24 20:00:00 10.7 0 Calma 5 Noroeste 0 -- -- 96
2019-05-24 19:00:00 10.8 0 Calma 5 Sur 0.2 -- -- 95
2019-05-24 18:00:00 10.6 2 Sudeste 9 Norte 1 -- -- 96
2019-05-24 17:00:00 10.5 3 Este 9 Este 1.4 -- -- 95
2019-05-24 16:00:00 11 3 Este 14 Sudeste 1.6 -- -- 95
2019-05-24 15:00:00 11.8 4 Sudeste 11 Este 0.8 -- -- 94
2019-05-24 14:00:00 13.5 4 Este 13 Sudeste 0 -- -- 83
2019-05-24 13:00:00 14.9 3 Este 10 Nordeste 0 -- -- 82
2019-05-24 12:00:00 13 5 Noroeste 9 Norte 0.2 -- -- 89
2019-05-24 11:00:00 13.2 0 Calma 6 Sudeste 0 -- -- 84
2019-05-24 10:00:00 13.3 3 Nordeste 9 Este 0 -- -- 83
2019-05-24 09:00:00 12.6 2 Este 6 Nordeste 0 -- -- 84
2019-05-24 08:00:00 11.9 2 Norte 4 Noroeste 0 -- -- 89
2019-05-24 07:00:00 11.4 0 Calma 5 Nordeste 0 -- -- 89
2019-05-24 06:00:00 11.4 3 Norte 5 Noroeste 0 -- -- 88
2019-05-24 05:00:00 12.1 0 Calma 4 Oeste 0 -- -- 86
2019-05-24 04:00:00 12.3 0 Calma 4 Sudoeste 0 -- -- 85
2019-05-24 03:00:00 11.8 2 Oeste 5 Nordeste 0 -- -- 91
2019-05-24 02:00:00 12.3 0 Calma 4 Sudoeste 0 -- -- 90
2019-05-24 01:00:00 12.9 0 Calma 6 Este 0 -- -- 90
2019-05-24 00:00:00 13.3 2 Norte 8 Norte 0 -- -- 89
2019-05-23 23:00:00 13.8 0 Calma 13 Noroeste 0 -- -- 86
2019-05-23 22:00:00 14 3 Norte 6 Noroeste 0 -- -- 86
2019-05-23 21:00:00 15.4 3 Norte 5 Norte 0 -- -- 79
2019-05-23 20:00:00 16.6 2 Este 9 Este 0 -- -- 73
2019-05-23 19:00:00 18.4 4 Sudeste 17 Sur 0 -- -- 67
2019-05-23 18:00:00 20.9 5 Sudeste 18 Sur 0 -- -- 54
2019-05-23 17:00:00 21.7 6 Sudeste 18 Este 0 -- -- 56
2019-05-23 16:00:00 21.5 6 Sudeste 22 Sudeste 0 -- -- 52
2019-05-23 15:00:00 21.5 5 Este 18 Este 0 -- -- 48
2019-05-23 14:00:00 21.4 5 Sudeste 20 Sudoeste 0 -- -- 54
2019-05-23 13:00:00 20.6 6 Sudeste 17 Este 0 -- -- 56
2019-05-23 12:00:00 19.7 5 Sudeste 14 Sudoeste 0 -- -- 60
2019-05-23 11:00:00 18.2 5 Sudeste 13 Sudeste 0 -- -- 60
2019-05-23 10:00:00 16 4 Este 11 Este 0 -- -- 66
2019-05-23 09:00:00 13.1 3 Este 9 Este 0 -- -- 73
2019-05-23 08:00:00 8.7 0 Calma 6 Sur 0 -- -- 86
2019-05-23 07:00:00 7.6 0 Calma 4 Oeste 0 -- -- 90
2019-05-23 06:00:00 7.2 0 Calma 4 Noroeste 0 -- -- 95
2019-05-23 05:00:00 7.1 3 Noroeste 5 Noroeste 0 -- -- 95
2019-05-23 04:00:00 7.6 4 Noroeste 6 Norte 0 -- -- 96
2019-05-23 03:00:00 8.2 4 Noroeste 7 Noroeste 0 -- -- 96
2019-05-23 02:00:00 8.8 3 Noroeste 6 Norte 0 -- -- 95
2019-05-23 01:00:00 9.5 4 Norte 6 Norte 0 -- -- 96
2019-05-23 00:00:00 10 3 Norte 6 Norte 0 -- -- 92
2019-05-22 23:00:00 11.5 3 Norte 6 Norte 0 -- -- 89
2019-05-22 22:00:00 13.4 3 Noroeste 5 Noroeste 0 -- -- 84
2019-05-22 21:00:00 14.6 3 Norte 6 Noroeste 0 -- -- 78
2019-05-22 20:00:00 16.1 3 Este 12 Sur 0 -- -- 69
2019-05-22 19:00:00 17.6 7 Sur 21 Sur 0 -- -- 62
2019-05-22 18:00:00 19.5 11 Sur 22 Sudeste 0 -- -- 56
2019-05-22 17:00:00 18.5 3 Sudeste 13 Nordeste 0 -- -- 59
2019-05-22 16:00:00 20.5 5 Sudeste 22 Sur 0 -- -- 53
2019-05-22 15:00:00 19.9 7 Sudeste 17 Sudeste 0 -- -- 49
2019-05-22 14:00:00 17.9 4 Sudeste 20 Este 0 -- -- 54
2019-05-22 13:00:00 17.3 3 Sudeste 17 Sur 0 -- -- 58
2019-05-22 12:00:00 16.9 7 Sur 19 Sur 0 -- -- 53
2019-05-22 11:00:00 16.2 9 Sur 17 Sur 0 -- -- 52
2019-05-22 10:00:00 14.5 5 Sur 13 Sudeste 0 -- -- 59
2019-05-22 09:00:00 9.9 3 Sudeste 10 Sur 0 -- -- 75
2019-05-22 08:00:00 6.5 0 Calma 4 Noroeste 0 -- -- 97
2019-05-22 07:00:00 5.8 3 Norte 4 Norte 0 -- -- 97
2019-05-22 06:00:00 5.8 0 Calma 3 Noroeste 0 -- -- 97
2019-05-22 05:00:00 5.8 2 Norte 4 Nordeste 0 -- -- 95
2019-05-22 04:00:00 6.2 2 Norte 4 Noroeste 0 -- -- 94
2019-05-22 03:00:00 7.3 3 Norte 5 Norte 0 -- -- 93
2019-05-22 02:00:00 8.9 3 Norte 4 Norte 0 -- -- 90
2019-05-22 01:00:00 9.7 2 Norte 5 Noroeste 0 -- -- 89
2019-05-22 00:00:00 10.3 3 Norte 5 Noroeste 0 -- -- 89
2019-05-21 23:00:00 10.8 2 Norte 4 Noroeste 0 -- -- 87
2019-05-21 22:00:00 11.7 2 Noroeste 3 Noroeste 0 -- -- 82
2019-05-21 21:00:00 13.4 0 Calma 6 Este 0 -- -- 70
2019-05-21 20:00:00 16 2 Sudeste 11 Sudeste 0 -- -- 62
2019-05-21 19:00:00 15.9 4 Este 14 Sur 0 -- -- 65
2019-05-21 18:00:00 14.2 10 Sur 28 Sur 0 -- -- 74
2019-05-21 17:00:00 15 5 Este 19 Sudeste 0 -- -- 66
2019-05-21 16:00:00 16 4 Sudeste 15 Sur 0 -- -- 62
2019-05-21 15:00:00 15.7 4 Sudeste 15 Sudeste 0 -- -- 63
2019-05-21 14:00:00 15.8 4 Sudeste 14 Sudeste 0 -- -- 64
2019-05-21 13:00:00 16 5 Este 14 Sudeste 0 -- -- 59
2019-05-21 12:00:00 16.7 5 Sudeste 15 Sudeste 0 -- -- 63
2019-05-21 11:00:00 14.8 5 Sudeste 15 Sur 0 -- -- 64
2019-05-21 10:00:00 11.9 4 Sur 8 Sudoeste 0 -- -- 76
2019-05-21 09:00:00 8 0 Calma 6 Este 0 -- -- 100
2019-05-21 08:00:00 5.3 3 Norte 4 Norte 0 -- -- 99
2019-05-21 07:00:00 4.4 2 Noroeste 4 Norte 0 -- -- 98
2019-05-21 06:00:00 5.3 4 Norte 8 Norte 0 -- -- 98
2019-05-21 05:00:00 5.9 5 Norte 8 Norte 0 -- -- 99
2019-05-21 04:00:00 6.1 2 Noroeste 7 Norte 0 -- -- 99
2019-05-21 03:00:00 6.7 4 Noroeste 10 Norte 0 -- -- 98
2019-05-21 02:00:00 6.6 5 Norte 9 Norte 0 -- -- 98
2019-05-21 01:00:00 6.1 3 Noroeste 6 Noroeste 0 -- -- 98
2019-05-21 00:00:00 6.2 4 Noroeste 6 Noroeste 0 -- -- 96
2019-05-20 23:00:00 7.4 4 Noroeste 6 Norte 0.2 -- -- 96
2019-05-20 22:00:00 8.8 3 Noroeste 6 Noroeste 0 -- -- 95
2019-05-20 21:00:00 9.9 0 Calma 7 Noroeste 0.6 -- -- 89
2019-05-20 20:00:00 10.9 0 Calma 8 Sur 0.2 -- -- 86
2019-05-20 19:00:00 12 3 Sudeste 12 Este 0 -- -- 76
2019-05-20 18:00:00 13.4 4 Sudeste 13 Este 0 -- -- 73
2019-05-20 17:00:00 13.4 3 Nordeste 15 Este 0 -- -- 76
2019-05-20 16:00:00 15.1 6 Sudeste 15 Este 0 -- -- 69
2019-05-20 15:00:00 13.7 2 Norte 12 Este 0 -- -- 74
2019-05-20 14:00:00 14.3 3 Este 14 Este 0 -- -- 68
2019-05-20 13:00:00 15.1 10 Sur 21 Sur 0 -- -- 69
2019-05-20 12:00:00 13.9 8 Sur 18 Sudoeste 0 -- -- 68
2019-05-20 11:00:00 11.8 7 Sur 14 Sur 0 -- -- 71
2019-05-20 10:00:00 10.8 9 Sur 13 Sur 0 -- -- 77
2019-05-20 09:00:00 7.2 3 Noroeste 19 Noroeste 0 -- -- 94
2019-05-20 08:00:00 6.6 12 Norte 23 Norte 0 -- -- 93
2019-05-20 07:00:00 6.4 12 Norte 19 Norte 0 -- -- 94
2019-05-20 06:00:00 6.4 3 Noroeste 24 Noroeste 0 -- -- 94
2019-05-20 05:00:00 6.9 16 Norte 26 Norte 0 -- -- 92
2019-05-20 04:00:00 7 11 Norte 24 Noroeste 0 -- -- 90
2019-05-20 03:00:00 7 12 Norte 24 Norte 0 -- -- 88
2019-05-20 02:00:00 6.9 13 Norte 23 Noroeste 0 -- -- 90
2019-05-20 01:00:00 7 13 Norte 24 Noroeste 0 -- -- 90
2019-05-20 00:00:00 6.8 12 Norte 21 Noroeste 0 -- -- 93
2019-05-19 23:00:00 7.1 10 Norte 18 Noroeste 0 -- -- 92
2019-05-19 22:00:00 7.4 9 Norte 15 Noroeste 0 -- -- 94
2019-05-19 21:00:00 8.3 5 Noroeste 10 Noroeste 0 -- -- 94
2019-05-19 20:00:00 9.2 6 Noroeste 11 Oeste 0.2 -- -- 91
2019-05-19 19:00:00 10.3 3 Noroeste 6 Sur 0 -- -- 87
2019-05-19 18:00:00 10.2 2 Sur 8 Sudoeste 0 -- -- 87
2019-05-19 17:00:00 8.5 3 Sudoeste 11 Sudeste 0.6 -- -- 87
2019-05-19 16:00:00 7.9 4 Noroeste 12 Oeste 0.6 -- -- 95
2019-05-19 15:00:00 7.6 5 Sur 13 Sur 3 -- -- 90
2019-05-19 14:00:00 8.7 8 Sur 14 Sudoeste 3 -- -- 89
2019-05-19 13:00:00 10.1 5 Oeste 15 Sur 0 -- -- 79
2019-05-19 12:00:00 12.3 4 Sur 9 Nordeste 0.2 -- -- 71
2019-05-19 11:00:00 9.7 6 Nordeste 12 Este 0 -- -- 87
2019-05-19 10:00:00 8.5 2 Este 9 Este 0 -- -- 91
2019-05-19 09:00:00 7 3 Sur 6 Sur 0 -- -- 100
2019-05-19 08:00:00 5.3 2 Norte 5 Norte 0 -- -- 100
2019-05-19 07:00:00 3.4 2 Norte 5 Noroeste 0 -- -- 99
2019-05-19 06:00:00 3.6 3 Norte 5 Nordeste 0 -- -- 98
2019-05-19 05:00:00 3.8 3 Noroeste 4 Noroeste 0 -- -- 98
2019-05-19 04:00:00 4.7 2 Noroeste 4 Norte 0 -- -- 98
2019-05-19 03:00:00 5.6 0 Calma 4 Norte 0 -- -- 98
2019-05-19 02:00:00 5.5 2 Nordeste 3 Nordeste 0 -- -- 98
2019-05-19 01:00:00 5.4 3 Norte 5 Norte 0 -- -- 98
2019-05-19 00:00:00 5.5 3 Noroeste 5 Noroeste 0 -- -- 98
2019-05-18 23:00:00 6.1 3 Norte 5 Norte 0 -- -- 97
2019-05-18 22:00:00 6.5 4 Nordeste 6 Norte 0 -- -- 96
2019-05-18 21:00:00 7.3 3 Norte 15 Sur 0.8 -- -- 93
2019-05-18 20:00:00 8.5 3 Nordeste 10 Este 0 -- -- 87
2019-05-18 19:00:00 9.5 3 Nordeste 11 Nordeste 0 -- -- 87
2019-05-18 18:00:00 7.8 2 Nordeste 13 Norte 0 -- -- 93
2019-05-18 17:00:00 8.7 4 Sudeste 18 Sur 0 -- -- 95
2019-05-18 16:00:00 9.5 4 Sudeste 9 Este 0 -- -- 94
2019-05-18 15:00:00 8.8 7 Sur 15 Sur 0.2 -- -- 94
2019-05-18 14:00:00 9.4 4 Sur 9 Sudeste 0.2 -- -- 93
2019-05-18 13:00:00 10.7 4 Este 12 Este 0 -- -- 88
2019-05-18 12:00:00 11.7 3 Este 9 Sur 0 -- -- 88
2019-05-18 11:00:00 9.3 6 Sur 10 Sur 0 -- -- 91
2019-05-18 10:00:00 9.4 5 Noroeste 8 Noroeste 0 -- -- 93
2019-05-18 09:00:00 7.8 5 Norte 15 Norte 0 -- -- 98
2019-05-18 08:00:00 7.1 6 Norte 12 Norte 0 -- -- 98
2019-05-18 07:00:00 6.8 8 Norte 13 Norte 0 -- -- 98
2019-05-18 06:00:00 6.5 4 Noroeste 11 Norte 0 -- -- 98
2019-05-18 05:00:00 7 5 Norte 8 Norte 0 -- -- 98
2019-05-18 04:00:00 7 2 Norte 6 Norte 0.6 -- -- 97
2019-05-18 03:00:00 7.2 4 Sur 10 Sur 0.8 -- -- 97
2019-05-18 02:00:00 7.2 0 Calma 13 Sur 1.6 -- -- 97
2019-05-18 01:00:00 7.1 0 Calma 4 Noroeste 1.2 -- -- 96
2019-05-18 00:00:00 7.1 0 Calma 9 Sur 1.2 -- -- 94
2019-05-17 23:00:00 7.2 0 Calma 7 Norte 0 -- -- 92
2019-05-17 22:00:00 7 3 Norte 5 Noroeste 0 -- -- 92
2019-05-17 21:00:00 7.5 4 Nordeste 14 Nordeste 0 -- -- 87
2019-05-17 20:00:00 8.9 4 Noroeste 14 Norte 0 -- -- 80
2019-05-17 19:00:00 8.6 8 Norte 17 Noroeste 0 -- -- 77
2019-05-17 18:00:00 10.6 6 Norte 23 Norte 0 -- -- 75
2019-05-17 17:00:00 9 7 Nordeste 21 Nordeste 0 -- -- 80
2019-05-17 16:00:00 8.3 10 Nordeste 24 Nordeste 0 -- -- 89
2019-05-17 15:00:00 8.3 7 Norte 19 Noroeste 0 -- -- 91
2019-05-17 14:00:00 8.7 8 Norte 22 Nordeste 0 -- -- 93
2019-05-17 13:00:00 8.7 3 Norte 12 Nordeste 0.2 -- -- 93
2019-05-17 12:00:00 8.3 4 Norte 9 Nordeste 0 -- -- 93
2019-05-17 11:00:00 7.8 3 Nordeste 8 Norte 0 -- -- 96
2019-05-17 10:00:00 7.6 4 Nordeste 15 Este 0.4 -- -- 95
2019-05-17 09:00:00 7.9 3 Este 12 Sur 4 -- -- 96
2019-05-17 08:00:00 8 5 Noroeste 9 Norte 3.8 -- -- 96
2019-05-17 07:00:00 8.3 3 Noroeste 10 Sur 0.2 -- -- 96
2019-05-17 06:00:00 8.2 5 Sudoeste 14 Sur 0 -- -- 95
2019-05-17 05:00:00 7.1 3 Noroeste 6 Norte 0 -- -- 96
2019-05-17 04:00:00 7.2 3 Noroeste 7 Noroeste 0 -- -- 95
2019-05-17 03:00:00 7.4 5 Noroeste 18 Norte 1 -- -- 94
2019-05-17 02:00:00 9 13 Noroeste 33 Noroeste 0 -- -- 81
2019-05-17 01:00:00 10.1 8 Noroeste 13 Noroeste 0 -- -- 83
2019-05-17 00:00:00 10.3 4 Noroeste 8 Norte 0 -- -- 90
2019-05-16 23:00:00 10.7 3 Norte 8 Sur 0 -- -- 88
2019-05-16 22:00:00 12 4 Norte 10 Norte 0 -- -- 83
2019-05-16 21:00:00 13.8 3 Oeste 14 Sur 0 -- -- 76
2019-05-16 20:00:00 17.1 6 Sur 13 Sur 0 -- -- 63
2019-05-16 19:00:00 18.4 5 Sur 18 Sudeste 0 -- -- 60
2019-05-16 18:00:00 19.1 9 Sur 23 Sur 0 -- -- 52
2019-05-16 17:00:00 19.1 8 Oeste 27 Sudoeste 0 -- -- 51
2019-05-16 16:00:00 20.1 9 Oeste 30 Oeste 0 -- -- 46
2019-05-16 15:00:00 19.7 12 Noroeste 30 Noroeste 0 -- -- 43
2019-05-16 14:00:00 19.7 11 Oeste 24 Noroeste 0 -- -- 44
2019-05-16 13:00:00 18.4 12 Oeste 31 Noroeste 0 -- -- 50
2019-05-16 12:00:00 16.9 13 Noroeste 29 Noroeste 0 -- -- 49
2019-05-16 11:00:00 15.1 13 Oeste 29 Norte 0 -- -- 50
2019-05-16 10:00:00 12.4 15 Noroeste 31 Noroeste 0 -- -- 51
2019-05-16 09:00:00 10 12 Noroeste 23 Oeste 0 -- -- 62
2019-05-16 08:00:00 9.3 14 Noroeste 27 Oeste 0 -- -- 64
2019-05-16 07:00:00 7.6 10 Noroeste 24 Oeste 0 -- -- 78
2019-05-16 06:00:00 6.5 3 Nordeste 7 Nordeste 0 -- -- 87
2019-05-16 05:00:00 7.2 3 Norte 9 Norte 0 -- -- 88
2019-05-16 04:00:00 7.6 3 Nordeste 17 Norte 0 -- -- 86
2019-05-16 03:00:00 7.9 9 Norte 21 Norte 0 -- -- 82
2019-05-16 02:00:00 7.8 12 Norte 22 Noroeste 0 -- -- 82
2019-05-16 01:00:00 5.1 5 Norte 10 Norte 0 -- -- 91
2019-05-16 00:00:00 4.9 0 Calma 5 Norte 0 -- -- 92
2019-05-15 23:00:00 5.5 3 Norte 5 Nordeste 0 -- -- 89
2019-05-15 22:00:00 6.7 3 Noroeste 10 Sur 0 -- -- 82
2019-05-15 21:00:00 8.7 8 Sur 15 Sur 0 -- -- 74
2019-05-15 20:00:00 11.5 8 Sur 19 Sur 0 -- -- 62
2019-05-15 19:00:00 13.6 10 Sur 15 Sur 0 -- -- 56
2019-05-15 18:00:00 14.5 5 Este 14 Nordeste 0 -- -- 55
2019-05-15 17:00:00 14.8 6 Este 19 Sudeste 0 -- -- 55
2019-05-15 16:00:00 14.9 6 Sudeste 20 Este 0 -- -- 50
2019-05-15 15:00:00 15.1 7 Sudeste 21 Sudeste 0 -- -- 50
2019-05-15 14:00:00 15.7 6 Sudeste 19 Este 0 -- -- 49
2019-05-15 13:00:00 15.5 8 Sudeste 20 Sudeste 0 -- -- 54
2019-05-15 12:00:00 15 6 Sudeste 15 Sudeste 0 -- -- 56
2019-05-15 11:00:00 13.8 5 Sudeste 19 Sur 0 -- -- 55
2019-05-15 10:00:00 12.4 3 Sudeste 9 Este 0 -- -- 61
2019-05-15 09:00:00 8.8 2 Sudeste 6 Nordeste 0 -- -- 75
2019-05-15 08:00:00 5.6 0 Calma 5 Norte 0 -- -- 96
2019-05-15 07:00:00 4.9 3 Norte 6 Noroeste 0 -- -- 96
2019-05-15 06:00:00 5.5 4 Norte 6 Norte 0 -- -- 95
2019-05-15 05:00:00 5.5 4 Noroeste 6 Noroeste 0 -- -- 94
2019-05-15 04:00:00 6.1 2 Norte 5 Noroeste 0 -- -- 94
2019-05-15 03:00:00 6.7 3 Norte 5 Noroeste 0 -- -- 94
2019-05-15 02:00:00 7.4 2 Norte 4 Norte 0 -- -- 95
2019-05-15 01:00:00 8.1 2 Norte 4 Norte 0 -- -- 94
2019-05-15 00:00:00 8.7 3 Nordeste 4 Nordeste 0 -- -- 94
2019-05-14 23:00:00 9.6 2 Norte 4 Norte 0 -- -- 91
2019-05-14 22:00:00 11 3 Norte 5 Noroeste 0 -- -- 86
2019-05-14 21:00:00 13.4 0 Calma 6 Noroeste 0 -- -- 79
2019-05-14 20:00:00 15.5 4 Sur 14 Sur 0 -- -- 70
2019-05-14 19:00:00 16.5 9 Sur 15 Sur 0 -- -- 68
2019-05-14 18:00:00 17.6 4 Este 17 Este 0 -- -- 66
2019-05-14 17:00:00 18.7 7 Sudeste 21 Este 0 -- -- 60
2019-05-14 16:00:00 20.1 5 Nordeste 24 Norte 0 -- -- 55
2019-05-14 15:00:00 20.2 13 Norte 32 Noroeste 0 -- -- 38
2019-05-14 14:00:00 19.6 14 Noroeste 36 Noroeste 0 -- -- 39
2019-05-14 13:00:00 18.2 14 Noroeste 29 Sudoeste 0 -- -- 38
2019-05-14 12:00:00 17.3 15 Noroeste 33 Noroeste 0 -- -- 39
2019-05-14 11:00:00 16.1 14 Oeste 30 Noroeste 0 -- -- 43
2019-05-14 10:00:00 14.5 10 Noroeste 21 Oeste 0 -- -- 44
2019-05-14 09:00:00 9.8 3 Sudeste 8 Sur 0 -- -- 63
2019-05-14 08:00:00 5.8 0 Calma 4 Noroeste 0 -- -- 88
2019-05-14 07:00:00 4.4 4 Noroeste 7 Noroeste 0 -- -- 95
2019-05-14 06:00:00 4.7 4 Noroeste 8 Norte 0 -- -- 92
2019-05-14 05:00:00 4.8 3 Noroeste 5 Noroeste 0 -- -- 93
2019-05-14 04:00:00 5 3 Norte 6 Noroeste 0 -- -- 91
2019-05-14 03:00:00 4.9 3 Norte 6 Noroeste 0 -- -- 86
2019-05-14 02:00:00 5 4 Noroeste 6 Noroeste 0 -- -- 83
2019-05-14 01:00:00 5.3 3 Noroeste 6 Norte 0 -- -- 74
2019-05-14 00:00:00 6 4 Noroeste 5 Norte 0 -- -- 72
2019-05-13 23:00:00 7.2 3 Norte 4 Noroeste 0 -- -- 68
2019-05-13 22:00:00 9.4 3 Norte 5 Norte 0 -- -- 62
2019-05-13 21:00:00 13.6 2 Este 10 Sur 0 -- -- 43
2019-05-13 20:00:00 17.3 3 Sudeste 14 Sur 0 -- -- 34
2019-05-13 19:00:00 18.7 5 Sudeste 20 Sudeste 0 -- -- 30
2019-05-13 18:00:00 18.8 7 Sudeste 23 Sudeste 0 -- -- 27
2019-05-13 17:00:00 19.4 8 Sudeste 21 Sudeste 0 -- -- 27
2019-05-13 16:00:00 19.4 9 Sudeste 25 Sudeste 0 -- -- 28
2019-05-13 15:00:00 19.1 8 Sudeste 22 Sudeste 0 -- -- 28
2019-05-13 14:00:00 17.8 10 Sur 24 Sur 0 -- -- 36
2019-05-13 13:00:00 17.6 6 Sur 17 Sur 0 -- -- 43
2019-05-13 12:00:00 15.7 9 Sur 22 Sur 0 -- -- 46
2019-05-13 11:00:00 14.6 7 Sur 15 Sur 0 -- -- 50
2019-05-13 10:00:00 12.2 7 Sur 13 Sur 0 -- -- 49
2019-05-13 09:00:00 7.9 4 Sur 12 Sur 0 -- -- 70
2019-05-13 08:00:00 4.2 3 Norte 8 Norte 0 -- -- 84
2019-05-13 07:00:00 3 4 Norte 5 Noroeste 0 -- -- 89
2019-05-13 06:00:00 4.4 3 Oeste 9 Norte 0 -- -- 82
2019-05-13 05:00:00 6 4 Norte 16 Norte 0 -- -- 74
2019-05-13 04:00:00 7.5 9 Norte 16 Nordeste 0 -- -- 65
2019-05-13 03:00:00 7.2 10 Norte 19 Noroeste 0 -- -- 75
2019-05-13 02:00:00 4.4 4 Noroeste 10 Noroeste 0 -- -- 90
2019-05-13 01:00:00 5.1 3 Norte 7 Norte 0 -- -- 90
2019-05-13 00:00:00 6.5 2 Noroeste 8 Norte 0 -- -- 91
2019-05-12 23:00:00 8.1 3 Norte 7 Nordeste 0 -- -- 91
2019-05-12 22:00:00 9.7 3 Noroeste 7 Sur 0 -- -- 86
2019-05-12 21:00:00 12.8 4 Sur 15 Sur 0 -- -- 74
2019-05-12 20:00:00 16.2 5 Sudeste 16 Sudeste 0 -- -- 53
2019-05-12 19:00:00 18 5 Sudeste 17 Sur 0 -- -- 54
2019-05-12 18:00:00 18 8 Sur 17 Sur 0 -- -- 59
2019-05-12 17:00:00 17.4 9 Sur 19 Sur 0 -- -- 64
2019-05-12 16:00:00 16 5 Sudeste 19 Sudeste 0 -- -- 68
2019-05-12 15:00:00 15.9 6 Sur 18 Sur 0 -- -- 69
2019-05-12 14:00:00 16.2 5 Sudeste 14 Sur 0 -- -- 66
2019-05-12 13:00:00 16 4 Este 17 Este 0 -- -- 65
2019-05-12 12:00:00 15.7 5 Sudeste 16 Sudeste 0 -- -- 72
2019-05-12 11:00:00 12.5 4 Sudeste 13 Sur 0 -- -- 82
2019-05-12 10:00:00 12 2 Sudeste 12 Sur 0 -- -- 88
2019-05-12 09:00:00 8.9 3 Norte 6 Norte 0 -- -- 98
2019-05-12 08:00:00 8.4 4 Norte 6 Norte 0 -- -- 99
2019-05-12 07:00:00 8.3 2 Norte 6 Sur 0 -- -- 99
2019-05-12 06:00:00 8.3 0 Calma 4 Este 0 -- -- 99
2019-05-12 05:00:00 7.6 0 Calma 5 Noroeste 0 -- -- 98
2019-05-12 04:00:00 7 3 Norte 5 Noroeste 0 -- -- 98
2019-05-12 03:00:00 6.3 0 Calma 4 Norte 0 -- -- 97
2019-05-12 02:00:00 7 5 Norte 11 Nordeste 0 -- -- 97
2019-05-12 01:00:00 7.8 6 Nordeste 12 Nordeste 0 -- -- 99
2019-05-12 00:00:00 8 2 Norte 5 Este 0 -- -- 96
2019-05-11 23:00:00 8.6 0 Calma 10 Nordeste 0 -- -- 94
2019-05-11 22:00:00 8.9 2 Norte 6 Norte 0 -- -- 92
2019-05-11 21:00:00 10.9 5 Oeste 10 Sur 0 -- -- 85
2019-05-11 20:00:00 12.7 5 Sudoeste 9 Nordeste 0 -- -- 79
2019-05-11 19:00:00 11.9 3 Nordeste 13 Sudeste 0 -- -- 82
2019-05-11 18:00:00 12.1 4 Este 16 Nordeste 0 -- -- 81
2019-05-11 17:00:00 13.7 6 Este 19 Este 0 -- -- 78
2019-05-11 16:00:00 15.5 4 Este 15 Este 0 -- -- 77
2019-05-11 15:00:00 18.1 5 Sudeste 20 Sur 0 -- -- 70
2019-05-11 14:00:00 17.4 9 Sur 19 Sur 0 -- -- 64
2019-05-11 13:00:00 16.6 4 Sudeste 23 Sur 0 -- -- 76
2019-05-11 12:00:00 16 8 Sur 15 Sur 0 -- -- 68
2019-05-11 11:00:00 15.9 8 Sur 18 Sur 0 -- -- 67
2019-05-11 10:00:00 16 7 Sudeste 15 Sur 0 -- -- 64
2019-05-11 09:00:00 13.2 3 Norte 9 Noroeste 0 -- -- 86
2019-05-11 08:00:00 9.6 3 Norte 4 Nordeste 0 -- -- 96
2019-05-11 07:00:00 8.6 3 Norte 6 Noroeste 0 -- -- 95
2019-05-11 06:00:00 8.9 3 Norte 5 Noroeste 0 -- -- 93
2019-05-11 05:00:00 10 0 Calma 3 Norte 0 -- -- 92
2019-05-11 04:00:00 11.1 0 Calma 4 Sudoeste 0 -- -- 89
2019-05-11 03:00:00 11.9 0 Calma 5 Nordeste 0 -- -- 88
2019-05-11 02:00:00 12.5 3 Norte 6 Este 0 -- -- 85
2019-05-11 01:00:00 13.2 2 Sudeste 13 Norte 0 -- -- 82
2019-05-11 00:00:00 13.1 5 Nordeste 11 Nordeste 0 -- -- 85
2019-05-10 23:00:00 11.2 4 Norte 9 Norte 0 -- -- 86
2019-05-10 22:00:00 12.8 4 Norte 12 Sur 0 -- -- 79
2019-05-10 21:00:00 15 4 Sudeste 10 Sur 0 -- -- 70
2019-05-10 20:00:00 16.1 2 Nordeste 12 Sudeste 0 -- -- 69
2019-05-10 19:00:00 19.6 4 Este 13 Este 0 -- -- 57
2019-05-10 18:00:00 19.8 5 Este 16 Este 0 -- -- 54
2019-05-10 17:00:00 19.6 7 Sur 22 Sur 0 -- -- 58
2019-05-10 16:00:00 18.5 14 Sur 24 Sur 0 -- -- 59
2019-05-10 15:00:00 20.8 11 Sur 21 Sur 0 -- -- 53
2019-05-10 14:00:00 20.2 10 Sur 18 Sur 0 -- -- 54
2019-05-10 13:00:00 20 6 Sudeste 17 Sur 0 -- -- 57
2019-05-10 12:00:00 19.2 6 Sur 15 Nordeste 0 -- -- 56
2019-05-10 11:00:00 17.1 4 Sur 12 Sur 0 -- -- 59
2019-05-10 10:00:00 14.9 3 Sudeste 12 Este 0 -- -- 68
2019-05-10 09:00:00 13.1 3 Sur 14 Sudoeste 0 -- -- 73
2019-05-10 08:00:00 10.1 0 Calma 6 Noroeste 0 -- -- 83
2019-05-10 07:00:00 8.6 0 Calma 4 Sudeste 0 -- -- 80
2019-05-10 06:00:00 9.5 3 Norte 15 Oeste 0 -- -- 72
2019-05-10 05:00:00 10.5 7 Noroeste 20 Oeste 0 -- -- 66
2019-05-10 04:00:00 10.3 9 Noroeste 13 Noroeste 0 -- -- 66
2019-05-10 03:00:00 11 10 Norte 15 Noroeste 0 -- -- 62
2019-05-10 02:00:00 9.2 3 Noroeste 9 Norte 0 -- -- 73
2019-05-10 01:00:00 9.7 3 Noroeste 6 Norte 0 -- -- 80
2019-05-10 00:00:00 10.7 4 Norte 9 Noroeste 0 -- -- 77
2019-05-09 23:00:00 10.9 3 Norte 8 Noroeste 0 -- -- 76
2019-05-09 22:00:00 11.3 2 Sur 12 Sudoeste 0 -- -- 68
2019-05-09 21:00:00 11.4 4 Sur 17 Sur 0 -- -- 67
2019-05-09 20:00:00 14.1 8 Sur 25 Sur 0 -- -- 58
2019-05-09 19:00:00 15.7 13 Sur 23 Sudeste 0 -- -- 52
2019-05-09 18:00:00 15.8 16 Sur 26 Sur 0 -- -- 61
2019-05-09 17:00:00 16.5 10 Sudeste 30 Sur 0 -- -- 64
2019-05-09 16:00:00 15.9 13 Sudeste 28 Sur 0 -- -- 64
2019-05-09 15:00:00 16 16 Sur 29 Sur 0 -- -- 60
2019-05-09 14:00:00 15.7 12 Sur 27 Sur 0 -- -- 58
2019-05-09 13:00:00 15.5 11 Sur 25 Sur 0 -- -- 57
2019-05-09 12:00:00 14.6 9 Sur 22 Sur 0 -- -- 61
2019-05-09 11:00:00 13.2 10 Sudoeste 23 Oeste 0 -- -- 68
2019-05-09 10:00:00 10.9 5 Sudeste 13 Sur 0 -- -- 80
2019-05-09 09:00:00 7.3 4 Sur 11 Sur 0 -- -- 99
2019-05-09 08:00:00 5.4 0 Calma 4 Este 0 -- -- 99
2019-05-09 07:00:00 4.3 3 Norte 4 Norte 0 -- -- 98
2019-05-09 06:00:00 4.9 3 Norte 6 Noroeste 0 -- -- 97
2019-05-09 05:00:00 5.6 3 Norte 6 Noroeste 0 -- -- 96
2019-05-09 04:00:00 6.6 3 Nordeste 8 Noroeste 0 -- -- 96
2019-05-09 03:00:00 7.9 5 Norte 10 Nordeste 0 -- -- 95
2019-05-09 02:00:00 9 4 Sudeste 15 Sudeste 0 -- -- 96
2019-05-09 01:00:00 10.6 5 Este 13 Este 0 -- -- 97
2019-05-09 00:00:00 11.3 2 Sudeste 9 Sur 0 -- -- 95
2019-05-08 23:00:00 11.9 3 Sur 18 Norte 0 -- -- 92
2019-05-08 22:00:00 13 4 Norte 19 Noroeste 0.8 -- -- 90
2019-05-08 21:00:00 16.2 14 Norte 36 Noroeste 0.4 -- -- 74
2019-05-08 20:00:00 18.1 8 Oeste 30 Noroeste 0 -- -- 59
2019-05-08 19:00:00 18.8 5 Noroeste 37 Oeste 0 -- -- 60
2019-05-08 18:00:00 20.1 17 Oeste 42 Noroeste 0 -- -- 52
2019-05-08 17:00:00 20.1 21 Noroeste 49 Oeste 0 -- -- 51
2019-05-08 16:00:00 20.3 13 Oeste 40 Oeste 0 -- -- 52
2019-05-08 15:00:00 20.6 19 Sudoeste 42 Sudoeste 0 -- -- 53
2019-05-08 14:00:00 19.7 14 Oeste 39 Sudoeste 0 -- -- 58
2019-05-08 13:00:00 18.7 19 Oeste 37 Sudoeste 0 -- -- 58
2019-05-08 12:00:00 17.9 19 Oeste 38 Noroeste 0 -- -- 63
2019-05-08 11:00:00 17.5 19 Noroeste 40 Sudoeste 0 -- -- 65
2019-05-08 10:00:00 16.4 19 Oeste 37 Oeste 0 -- -- 67
2019-05-08 09:00:00 13.8 15 Oeste 28 Noroeste 0 -- -- 74
2019-05-08 08:00:00 12.5 16 Oeste 31 Noroeste 0 -- -- 80
2019-05-08 07:00:00 11 17 Noroeste 32 Oeste 0 -- -- 87
2019-05-08 06:00:00 10.3 21 Noroeste 33 Noroeste 0 -- -- 92
2019-05-08 05:00:00 10.4 19 Norte 34 Norte 0 -- -- 90
2019-05-08 04:00:00 10.6 18 Noroeste 33 Noroeste 0 -- -- 89
2019-05-08 03:00:00 12.2 17 Oeste 33 Oeste 0 -- -- 77
2019-05-08 02:00:00 11.2 21 Norte 31 Noroeste 0 -- -- 86
2019-05-08 01:00:00 11.5 16 Norte 34 Noroeste 0 -- -- 84
2019-05-08 00:00:00 11.3 16 Norte 27 Noroeste 0 -- -- 87
2019-05-07 23:00:00 11.8 15 Noroeste 32 Noroeste 0 -- -- 85
2019-05-07 22:00:00 13 13 Noroeste 23 Noroeste 0 -- -- 79
2019-05-07 21:00:00 14.7 13 Noroeste 22 Noroeste 0 -- -- 64
2019-05-07 20:00:00 16.9 9 Noroeste 19 Noroeste 0 -- -- 51
2019-05-07 19:00:00 17.3 8 Sur 17 Sudoeste 0 -- -- 68
2019-05-07 18:00:00 19.6 8 Sudoeste 18 Sur 0 -- -- 52
2019-05-07 17:00:00 20 6 Sur 17 Sur 0 -- -- 61
2019-05-07 16:00:00 18.9 10 Sur 17 Sur 0 -- -- 61
2019-05-07 15:00:00 18.8 8 Sur 16 Sur 0 -- -- 64
2019-05-07 14:00:00 18.6 6 Sur 13 Sur 0 -- -- 64
2019-05-07 13:00:00 17.1 5 Sudeste 12 Nordeste 0 -- -- 65
2019-05-07 12:00:00 15.7 4 Sudeste 13 Sudeste 0 -- -- 65
2019-05-07 11:00:00 13.6 4 Este 10 Este 0 -- -- 68
2019-05-07 10:00:00 12.3 4 Sudeste 8 Sur 0 -- -- 69
2019-05-07 09:00:00 9.2 3 Sur 16 Norte 0 -- -- 67
2019-05-07 08:00:00 3.8 4 Norte 10 Norte 0 -- -- 90
2019-05-07 07:00:00 3.2 2 Nordeste 4 Nordeste 0 -- -- 94
2019-05-07 06:00:00 3.7 2 Norte 6 Noroeste 0 -- -- 94
2019-05-07 05:00:00 5 6 Norte 11 Noroeste 0 -- -- 92
2019-05-07 04:00:00 6.2 8 Norte 17 Norte 0 -- -- 90
2019-05-07 03:00:00 6.9 10 Norte 17 Noroeste 0 -- -- 86
2019-05-07 02:00:00 6 7 Norte 11 Norte 0 -- -- 94
2019-05-07 01:00:00 5.3 4 Norte 7 Nordeste 0 -- -- 95
2019-05-07 00:00:00 5.8 3 Norte 5 Norte 0 -- -- 95
2019-05-06 23:00:00 6.2 3 Noroeste 4 Noroeste 0 -- -- 93
2019-05-06 22:00:00 6.9 0 Calma 6 Sudoeste 0 -- -- 89
2019-05-06 21:00:00 8.5 0 Calma 12 Sur 0 -- -- 84
2019-05-06 20:00:00 10.8 10 Sur 14 Sur 0 -- -- 74
2019-05-06 19:00:00 13 3 Sudeste 15 Sur 0 -- -- 65
2019-05-06 18:00:00 12.7 8 Sur 21 Sur 0 -- -- 66
2019-05-06 17:00:00 13.2 10 Sudeste 24 Sur 0 -- -- 62
2019-05-06 16:00:00 14.5 5 Sudeste 22 Este 0 -- -- 63
2019-05-06 15:00:00 14.4 5 Nordeste 17 Este 0 -- -- 59
2019-05-06 14:00:00 14.4 11 Sur 21 Sur 0 -- -- 53
2019-05-06 13:00:00 14.1 5 Noroeste 24 Norte 0 -- -- 39
2019-05-06 12:00:00 12 9 Sudoeste 26 Noroeste 0 -- -- 43
2019-05-06 11:00:00 10.4 9 Noroeste 25 Norte 0 -- -- 58
2019-05-06 10:00:00 7.5 10 Noroeste 24 Noroeste 0 -- -- 70
2019-05-06 09:00:00 5.2 9 Noroeste 17 Norte 0 -- -- 70
2019-05-06 08:00:00 1.8 5 Norte 9 Noroeste 0 -- -- 84
2019-05-06 07:00:00 -0.9 2 Sudoeste 6 Norte 0 -- -- 94
2019-05-06 06:00:00 -0.9 4 Norte 8 Norte 0 -- -- 96
2019-05-06 05:00:00 -1.1 3 Norte 5 Norte 0 -- -- 96
2019-05-06 04:00:00 -0.7 3 Norte 6 Noroeste 0 -- -- 95
2019-05-06 03:00:00 -0.5 4 Norte 5 Norte 0 -- -- 95
2019-05-06 02:00:00 0.3 3 Norte 8 Norte 0 -- -- 93
2019-05-06 01:00:00 1.2 3 Norte 5 Noroeste 0 -- -- 90
2019-05-06 00:00:00 2.5 3 Norte 11 Sudeste 0 -- -- 85
2019-05-05 23:00:00 4.5 4 Sur 13 Sur 0 -- -- 74
2019-05-05 22:00:00 5.6 8 Sur 16 Sur 0 -- -- 70
2019-05-05 21:00:00 7.2 8 Sur 21 Sur 0 -- -- 71
2019-05-05 20:00:00 10.3 9 Sur 22 Sur 0 -- -- 59
2019-05-05 19:00:00 12.9 6 Sudeste 17 Sur 0 -- -- 54
2019-05-05 18:00:00 13 6 Sudeste 20 Sudeste 0 -- -- 55
2019-05-05 17:00:00 15.5 10 Sur 24 Norte 0 -- -- 39
2019-05-05 16:00:00 15 11 Norte 26 Nordeste 0 -- -- 19
2019-05-05 15:00:00 14.8 14 Oeste 30 Noroeste 0 -- -- 19
2019-05-05 14:00:00 14.1 13 Oeste 26 Oeste 0 -- -- 20
2019-05-05 13:00:00 13.6 12 Noroeste 25 Noroeste 0 -- -- 20
2019-05-05 12:00:00 12 13 Norte 36 Noroeste 0 -- -- 21
2019-05-05 11:00:00 9.9 15 Noroeste 39 Noroeste 0 -- -- 23
2019-05-05 10:00:00 7.7 19 Noroeste 42 Norte 0 -- -- 28
2019-05-05 09:00:00 5.7 16 Noroeste 40 Noroeste 0 -- -- 34
2019-05-05 08:00:00 4.4 20 Noroeste 34 Noroeste 0 -- -- 39
2019-05-05 07:00:00 2.6 10 Noroeste 24 Norte 0 -- -- 51
2019-05-05 06:00:00 2.3 5 Norte 13 Norte 0 -- -- 69
2019-05-05 05:00:00 3.5 4 Nordeste 21 Norte 0 -- -- 70
2019-05-05 04:00:00 5.3 10 Norte 22 Norte 0 -- -- 88
2019-05-05 03:00:00 5.7 6 Norte 13 Norte 0 -- -- 95
2019-05-05 02:00:00 6.5 4 Norte 13 Nordeste 0 -- -- 93
2019-05-05 01:00:00 6.4 6 Norte 13 Nordeste 0 -- -- 93
2019-05-05 00:00:00 7.2 6 Noroeste 19 Norte 0 -- -- 91
2019-05-04 23:00:00 7.1 0 Calma 6 Noroeste 0 -- -- 89
2019-05-04 22:00:00 7.8 2 Este 7 Nordeste 0 -- -- 85
2019-05-04 21:00:00 8.1 2 Este 7 Este 0 -- -- 78
2019-05-04 20:00:00 8.9 3 Este 9 Este 0 -- -- 75
2019-05-04 19:00:00 10.1 3 Sudeste 14 Sudeste 0 -- -- 65
2019-05-04 18:00:00 11.2 3 Sudeste 15 Nordeste 0 -- -- 63
2019-05-04 17:00:00 12.7 4 Sudeste 18 Este 0 -- -- 63
2019-05-04 16:00:00 12.6 4 Este 17 Sur 0 -- -- 65
2019-05-04 15:00:00 12.9 6 Sur 22 Sur 0 -- -- 63
2019-05-04 14:00:00 13.1 10 Sur 18 Sur 0 -- -- 61
2019-05-04 13:00:00 13.8 5 Sudeste 15 Sur 0 -- -- 69
2019-05-04 12:00:00 12 5 Sur 16 Sur 0 -- -- 72
2019-05-04 11:00:00 11.6 6 Sur 10 Sur 0 -- -- 67
2019-05-04 10:00:00 8.7 7 Norte 15 Norte 0 -- -- 77
2019-05-04 09:00:00 5.1 8 Norte 22 Norte 0 -- -- 90
2019-05-04 08:00:00 3.7 7 Norte 13 Norte 0 -- -- 92
2019-05-04 07:00:00 2.1 5 Norte 10 Norte 0 -- -- 97
2019-05-04 06:00:00 3.2 6 Noroeste 15 Noroeste 0 -- -- 95
2019-05-04 05:00:00 3.9 7 Norte 23 Noroeste 0 -- -- 97
2019-05-04 04:00:00 4.2 11 Norte 27 Noroeste 0 -- -- 98
2019-05-04 03:00:00 4.5 13 Norte 27 Norte 0 -- -- 98
2019-05-04 02:00:00 4.5 10 Norte 20 Norte 0 -- -- 97
2019-05-04 01:00:00 4.3 8 Norte 14 Norte 0 -- -- 98
2019-05-04 00:00:00 4.5 8 Norte 15 Norte 0 -- -- 98
2019-05-03 23:00:00 4.7 4 Noroeste 12 Norte 0 -- -- 97
2019-05-03 22:00:00 5.4 5 Norte 13 Nordeste 0 -- -- 97
2019-05-03 21:00:00 6 2 Noroeste 5 Noroeste 0 -- -- 97
2019-05-03 20:00:00 6.1 0 Calma 9 Noroeste 0.2 -- -- 97
2019-05-03 19:00:00 6 6 Norte 12 Noroeste 0.6 -- -- 97
2019-05-03 18:00:00 6.1 5 Nordeste 14 Nordeste 1.2 -- -- 97
2019-05-03 17:00:00 6.8 3 Nordeste 11 Nordeste 1.6 -- -- 98
2019-05-03 16:00:00 6.8 4 Este 15 Sur 1.8 -- -- 97
2019-05-03 15:00:00 7.3 4 Este 10 Nordeste 3.6 -- -- 97
2019-05-03 14:00:00 8 4 Sur 13 Sudoeste 2 -- -- 94
2019-05-03 13:00:00 8.2 3 Este 13 Sur 3 -- -- 96
2019-05-03 12:00:00 8.1 5 Sur 10 Sur 4.2 -- -- 95
2019-05-03 11:00:00 8.2 3 Sudeste 9 Sur 4 -- -- 96
2019-05-03 10:00:00 8.6 3 Este 9 Nordeste 0 -- -- 93
2019-05-03 09:00:00 8.4 2 Nordeste 4 Este 0 -- -- 99
2019-05-03 08:00:00 6.6 3 Noroeste 5 Noroeste 0 -- -- 98
2019-05-03 07:00:00 6.8 0 Calma 9 Norte 0 -- -- 97
2019-05-03 06:00:00 7.2 6 Norte 8 Norte 0.2 -- -- 98
2019-05-03 05:00:00 7.4 3 Norte 8 Noroeste 0 -- -- 98
2019-05-03 04:00:00 7.7 3 Norte 10 Noroeste 0 -- -- 98
2019-05-03 03:00:00 7.9 8 Noroeste 12 Noroeste 0.2 -- -- 98
2019-05-03 02:00:00 7.9 6 Norte 12 Norte 0.4 -- -- 98
2019-05-03 01:00:00 8.3 0 Calma 8 Noroeste 1.2 -- -- 98
2019-05-03 00:00:00 8.5 4 Norte 10 Norte 0.2 -- -- 98
2019-05-02 23:00:00 8.4 4 Noroeste 8 Norte 0.2 -- -- 97
2019-05-02 22:00:00 8.4 4 Norte 8 Norte 0 -- -- 96
2019-05-02 21:00:00 8.5 5 Norte 8 Norte 0.4 -- -- 95
2019-05-02 20:00:00 8.9 2 Sudeste 7 Nordeste 1 -- -- 93
2019-05-02 19:00:00 9.4 2 Nordeste 15 Nordeste 0.2 -- -- 91
2019-05-02 18:00:00 11.1 3 Nordeste 10 Este 0 -- -- 83
2019-05-02 17:00:00 12.9 6 Sudeste 24 Sur 0 -- -- 75
2019-05-02 16:00:00 14.1 14 Sur 31 Sur 0 -- -- 71
2019-05-02 15:00:00 14.5 12 Sur 24 Sur 0 -- -- 68
2019-05-02 14:00:00 13.2 12 Sur 21 Sur 0 -- -- 68
2019-05-02 13:00:00 12.9 9 Sur 24 Sudeste 0 -- -- 80
2019-05-02 12:00:00 12.1 14 Sur 24 Sur 0 -- -- 81
2019-05-02 11:00:00 12.6 6 Sur 15 Sur 0 -- -- 80
2019-05-02 10:00:00 11.5 4 Este 10 Nordeste 0 -- -- 91
2019-05-02 09:00:00 10.7 2 Este 8 Sudeste 0 -- -- 90
2019-05-02 08:00:00 9.5 2 Este 8 Este 0 -- -- 92
2019-05-02 07:00:00 9.3 0 Calma 3 Nordeste 0 -- -- 89
2019-05-02 06:00:00 9.5 0 Calma 4 Sur 0 -- -- 89
2019-05-02 05:00:00 8.9 3 Norte 5 Norte 0 -- -- 92
2019-05-02 04:00:00 9 2 Norte 5 Norte 0 -- -- 90
2019-05-02 03:00:00 9.9 0 Calma 4 Nordeste 0 -- -- 89
2019-05-02 02:00:00 10.9 0 Calma 6 Noroeste 0 -- -- 85
2019-05-02 01:00:00 12.1 4 Norte 14 Noroeste 0 -- -- 79
2019-05-02 00:00:00 12.7 8 Noroeste 17 Noroeste 0 -- -- 77
2019-05-01 23:00:00 11.9 4 Norte 11 Norte 0 -- -- 82
2019-05-01 22:00:00 12.6 3 Norte 6 Norte 0 -- -- 80
2019-05-01 21:00:00 13.2 0 Calma 5 Sudeste 0 -- -- 75
2019-05-01 20:00:00 14.7 2 Este 9 Sur 0 -- -- 70
2019-05-01 19:00:00 16.7 4 Sudeste 18 Sur 0 -- -- 63
2019-05-01 18:00:00 17.6 11 Sur 22 Sudoeste 0 -- -- 61
2019-05-01 17:00:00 17.6 11 Sur 22 Sur 0 -- -- 61
2019-05-01 16:00:00 17.8 6 Sudeste 24 Sudeste 0 -- -- 63
2019-05-01 15:00:00 18.1 12 Sur 20 Sudeste 0 -- -- 61
2019-05-01 14:00:00 17.9 4 Este 22 Sur 0 -- -- 59
2019-05-01 13:00:00 17.4 8 Sur 19 Sur 0 -- -- 55
2019-05-01 12:00:00 15.5 13 Sur 20 Sur 0 -- -- 54
2019-05-01 11:00:00 15.1 7 Sur 19 Sudoeste 0 -- -- 50
2019-05-01 10:00:00 13 7 Sur 15 Sur 0 -- -- 55
2019-05-01 09:00:00 9.4 5 Sur 11 Sudeste 0 -- -- 70
2019-05-01 08:00:00 6.8 2 Norte 9 Norte 0 -- -- 97
2019-05-01 07:00:00 7 4 Noroeste 12 Norte 0 -- -- 94
2019-05-01 06:00:00 7.7 7 Norte 10 Norte 0 -- -- 96
2019-05-01 05:00:00 8.1 6 Norte 10 Norte 0 -- -- 93
2019-05-01 04:00:00 5.8 3 Norte 5 Norte 0 -- -- 95
2019-05-01 03:00:00 5.5 4 Noroeste 5 Norte 0 -- -- 94
2019-05-01 02:00:00 6.7 3 Norte 4 Noroeste 0 -- -- 90
2019-05-01 01:00:00 8.8 2 Norte 4 Noroeste 0 -- -- 84
2019-05-01 00:00:00 10.4 0 Calma 5 Nordeste 0 -- -- 78
2019-04-30 23:00:00 10.6 0 Calma 4 Sur 0 -- -- 77
2019-04-30 22:00:00 10.9 0 Calma 4 Noroeste 0 -- -- 86
2019-04-30 21:00:00 11.1 0 Calma 5 Noroeste 0 -- -- 87
2019-04-30 20:00:00 11.4 4 Sur 12 Sur 0 -- -- 86
2019-04-30 19:00:00 12.3 10 Sur 16 Sur 0 -- -- 81
2019-04-30 18:00:00 14.3 4 Sudeste 13 Sur 0 -- -- 76
2019-04-30 17:00:00 14.8 4 Este 13 Este 0 -- -- 75
2019-04-30 16:00:00 14.5 4 Este 15 Sudoeste 0 -- -- 73
2019-04-30 15:00:00 14.9 6 Sudeste 17 Sur 0 -- -- 68
2019-04-30 14:00:00 15.6 8 Sur 17 Sur 0 -- -- 67
2019-04-30 13:00:00 13.7 5 Oeste 22 Sudoeste 0 -- -- 66
2019-04-30 12:00:00 13.2 10 Sur 19 Sur 0 -- -- 69
2019-04-30 11:00:00 12.3 9 Sur 15 Sur 0 -- -- 74
2019-04-30 10:00:00 10.8 4 Sudeste 11 Sur 0 -- -- 85
2019-04-30 09:00:00 8.4 0 Calma -- -- 0 -- -- 96
2019-04-30 08:00:00 6.5 0 Calma 4 Noroeste 0 -- -- 96
2019-04-30 07:00:00 6.6 0 Calma 6 Sur 0 -- -- 92
2019-04-30 06:00:00 7.7 2 Norte 8 Sudoeste 0 -- -- 93
2019-04-30 05:00:00 7.6 2 Norte 6 Noroeste 0 -- -- 91
2019-04-30 04:00:00 7.8 3 Norte 7 Norte 0 -- -- 90
2019-04-30 03:00:00 8 0 Calma 4 Sur 0 -- -- 93
2019-04-30 02:00:00 8.3 2 Sudoeste 8 Sudoeste 0 -- -- 90
2019-04-30 01:00:00 8.2 4 Noroeste 8 Norte 0 -- -- 93
2019-04-30 00:00:00 8.1 0 Calma 4 Nordeste 0 -- -- 96
2019-04-29 23:00:00 8 2 Norte 5 Noroeste 0 -- -- 96
2019-04-29 22:00:00 8.4 3 Noroeste 5 Norte 0 -- -- 94
2019-04-29 21:00:00 9.9 3 Norte 7 Oeste 0.2 -- -- 91
2019-04-29 20:00:00 11.2 4 Sudoeste 9 Sur 0 -- -- 88
2019-04-29 19:00:00 12 3 Sur 10 Sudeste 0 -- -- 81
2019-04-29 18:00:00 13.2 5 Sur 13 Sur 0 -- -- 72
2019-04-29 17:00:00 12.9 3 Sudeste 14 Sudeste 0 -- -- 73
2019-04-29 16:00:00 13.4 5 Sur 13 Sur 0 -- -- 71
2019-04-29 15:00:00 12.6 4 Sudoeste 15 Este 0 -- -- 70
2019-04-29 14:00:00 11.9 4 Este 10 Sudeste 0 -- -- 77
2019-04-29 13:00:00 10.4 7 Sur 12 Sur 0 -- -- 82
2019-04-29 12:00:00 9.9 4 Sudeste 9 Sur 0 -- -- 86
2019-04-29 11:00:00 8.9 5 Sur 8 Sur 0 -- -- 88
2019-04-29 10:00:00 8.2 0 Calma 5 Sudeste 0 -- -- 90
2019-04-29 09:00:00 8.1 0 Calma 6 Este 0 -- -- 90
2019-04-29 08:00:00 7.4 0 Calma 4 Este 0 -- -- 93
2019-04-29 07:00:00 7.1 3 Noroeste 6 Norte 0 -- -- 93
2019-04-29 06:00:00 7.1 2 Noroeste 4 Este 0 -- -- 92
2019-04-29 05:00:00 7.3 0 Calma 4 Norte 0 -- -- 92
2019-04-29 04:00:00 7.4 0 Calma 6 Sur 0 -- -- 89
2019-04-29 03:00:00 7.6 2 Sur 10 Sur 0 -- -- 88
2019-04-29 02:00:00 7.9 5 Sur 10 Sur 0 -- -- 87
2019-04-29 01:00:00 7.9 2 Sudeste 9 Sur 0 -- -- 88
2019-04-29 00:00:00 8 2 Sur 11 Nordeste 0 -- -- 87
2019-04-28 23:00:00 8.2 5 Nordeste 13 Este 0 -- -- 86
2019-04-28 22:00:00 8.4 2 Este 6 Este 0 -- -- 92
2019-04-28 21:00:00 8.9 2 Sudeste 7 Este 0 -- -- 89
2019-04-28 20:00:00 10 2 Este 5 Nordeste 0 -- -- 86
2019-04-28 19:00:00 9.8 2 Este 8 Nordeste 0 -- -- 87
2019-04-28 18:00:00 9.7 4 Sudeste 13 Sudoeste 0 -- -- 86
2019-04-28 17:00:00 10.5 3 Sudeste 14 Sur 0 -- -- 84
2019-04-28 16:00:00 11 9 Sur 17 Sur 0 -- -- 84
2019-04-28 15:00:00 12 5 Sudeste 15 Sudeste 0 -- -- 82
2019-04-28 14:00:00 12.9 5 Sudeste 13 Sudeste 0 -- -- 75
2019-04-28 13:00:00 12.8 4 Sudeste 14 Sur 0 -- -- 75
2019-04-28 12:00:00 10.9 4 Norte 11 Noroeste 0 -- -- 78
2019-04-28 11:00:00 9.5 0 Calma 10 Sur 0 -- -- 83
2019-04-28 10:00:00 8.2 3 Sudeste 10 Nordeste 0 -- -- 94
2019-04-28 09:00:00 6.9 3 Sudeste 10 Sur 0 -- -- 99
2019-04-28 08:00:00 4.2 0 Calma 3 Noroeste 0 -- -- 99
2019-04-28 07:00:00 2.9 0 Calma 4 Noroeste 0 -- -- 97
2019-04-28 06:00:00 3.8 0 Calma -- -- 0 -- -- 97
2019-04-28 05:00:00 4 0 Calma 3 Nordeste 0 -- -- 96
2019-04-28 04:00:00 4.9 0 Calma 4 Sur 0 -- -- 95
2019-04-28 03:00:00 5.5 0 Calma 5 Noroeste 0 -- -- 95
2019-04-28 02:00:00 6.2 0 Calma 3 Noroeste 0 -- -- 94
2019-04-28 01:00:00 7.7 0 Calma 3 Oeste 0 -- -- 94
2019-04-28 00:00:00 8.6 2 Este 4 Noroeste 0 -- -- 94
2019-04-27 23:00:00 9.2 2 Nordeste 3 Sudoeste 0 -- -- 93
2019-04-27 22:00:00 9.4 0 Calma 4 Sur 0 -- -- 91
2019-04-27 21:00:00 10.8 0 Calma 9 Sur 0 -- -- 87
2019-04-27 20:00:00 11.8 4 Sudeste 9 Este 0 -- -- 83
2019-04-27 19:00:00 13.7 3 Sudeste 11 Sudeste 0 -- -- 76
2019-04-27 18:00:00 12.4 3 Sudeste 11 Sur 0 -- -- 85
2019-04-27 17:00:00 11.6 6 Sur 12 Sur 0 -- -- 84
2019-04-27 16:00:00 12.1 3 Este 15 Este 0 -- -- 81
2019-04-27 15:00:00 12.8 5 Este 21 Sur 0 -- -- 77
2019-04-27 14:00:00 14.7 9 Sur 20 Sur 0 -- -- 66
2019-04-27 13:00:00 12.9 13 Sur 20 Sur 0 -- -- 72
2019-04-27 12:00:00 11.7 5 Sudeste 15 Sur 0 -- -- 77
2019-04-27 11:00:00 8.9 7 Sur 13 Sur 0 -- -- 90
2019-04-27 10:00:00 8.1 7 Sur 14 Sudeste 0 -- -- 94
2019-04-27 09:00:00 6.6 2 Sudeste 10 Sur 0 -- -- 98
2019-04-27 08:00:00 4.8 0 Calma 4 Este 0 -- -- 99
2019-04-27 07:00:00 3.7 0 Calma 3 Noroeste 0 -- -- 99
2019-04-27 06:00:00 3.4 0 Calma 3 Nordeste 0 -- -- 98
2019-04-27 05:00:00 2.7 0 Calma 2 Norte 0 -- -- 97
2019-04-27 04:00:00 2.8 0 Calma 2 Nordeste 0 -- -- 96
2019-04-27 03:00:00 3.4 0 Calma 2 Sur 0 -- -- 96
2019-04-27 02:00:00 3.9 2 Norte 4 Nordeste 0 -- -- 95
2019-04-27 01:00:00 4.6 2 Noroeste 4 Noroeste 0 -- -- 92
2019-04-27 00:00:00 5.9 2 Nordeste 5 Norte 0 -- -- 92
2019-04-26 23:00:00 7.4 3 Norte 6 Norte 0 -- -- 88
2019-04-26 22:00:00 8.2 3 Este 5 Sudeste 0 -- -- 84
2019-04-26 21:00:00 9.3 2 Este 10 Sudeste 0 -- -- 80
2019-04-26 20:00:00 10.6 3 Sudeste 10 Sur 0 -- -- 72
2019-04-26 19:00:00 10.7 3 Este 12 Este 0 -- -- 75
2019-04-26 18:00:00 10.9 3 Este 13 Sur 0 -- -- 74
2019-04-26 17:00:00 11.4 5 Nordeste 24 Este 0 -- -- 70
2019-04-26 16:00:00 16.8 11 Noroeste 26 Norte 0 -- -- 45
2019-04-26 15:00:00 13.9 11 Sur 23 Sur 0 -- -- 58
2019-04-26 14:00:00 12.5 13 Sur 23 Sudeste 0 -- -- 61
2019-04-26 13:00:00 13.7 12 Sur 25 Sur 0 -- -- 51
2019-04-26 12:00:00 12.5 5 Sur 21 Oeste 0 -- -- 57
2019-04-26 11:00:00 11.4 9 Oeste 27 Noroeste 0 -- -- 62
2019-04-26 10:00:00 8.9 9 Noroeste 24 Norte 0 -- -- 69
2019-04-26 09:00:00 6.4 13 Norte 37 Norte 0 -- -- 75
2019-04-26 08:00:00 5.8 18 Noroeste 40 Noroeste 0 -- -- 75
2019-04-26 07:00:00 5.9 25 Noroeste 41 Noroeste 0 -- -- 74
2019-04-26 06:00:00 6 22 Noroeste 46 Noroeste 0 -- -- 75
2019-04-26 05:00:00 7.1 24 Noroeste 51 Noroeste 0 -- -- 69
2019-04-26 04:00:00 7.5 25 Noroeste 44 Oeste 0 -- -- 65
2019-04-26 03:00:00 7.9 26 Noroeste 50 Noroeste 0 -- -- 61
2019-04-26 02:00:00 7.7 26 Noroeste 42 Oeste 0 -- -- 62
2019-04-26 01:00:00 7.5 23 Noroeste 41 Noroeste 0 -- -- 67
2019-04-26 00:00:00 7.7 21 Noroeste 40 Noroeste 0 -- -- 72